createdAt,value
2022-12-24T00:00:27.361Z,3.45
2022-12-24T00:02:57.554Z,2.47
2022-12-24T00:05:30.253Z,3.25
2022-12-24T00:08:00.294Z,2.65
2022-12-24T00:10:30.287Z,3.42
2022-12-24T00:13:00.270Z,2.25
2022-12-24T00:15:30.394Z,2.00
2022-12-24T00:18:00.409Z,3.17
2022-12-24T00:20:33.536Z,2.60
2022-12-24T00:23:03.758Z,7.45
2022-12-24T00:25:33.744Z,11.07
2022-12-24T00:28:03.765Z,17.10
2022-12-24T00:30:33.879Z,28.85
2022-12-24T00:33:03.925Z,25.15
2022-12-24T00:35:36.711Z,6.05
2022-12-24T00:38:07.065Z,17.85
2022-12-24T00:40:37.366Z,11.80
2022-12-24T00:43:07.601Z,18.98
2022-12-24T00:45:37.609Z,6.65
2022-12-24T00:48:07.836Z,7.68
2022-12-24T00:50:40.491Z,10.30
2022-12-24T00:53:10.513Z,9.50
2022-12-24T00:55:40.608Z,6.47
2022-12-24T00:58:10.602Z,7.13
2022-12-24T01:00:40.603Z,10.50
2022-12-24T01:03:10.737Z,3.00
2022-12-24T01:05:40.819Z,10.40
2022-12-24T01:08:10.750Z,5.70
2022-12-24T01:10:40.854Z,7.93
2022-12-24T01:13:10.805Z,8.55
2022-12-24T01:15:40.774Z,7.20
2022-12-24T01:18:10.732Z,4.22
2022-12-24T01:20:43.352Z,3.35
2022-12-24T01:23:13.367Z,2.88
2022-12-24T01:25:43.408Z,0.45
2022-12-24T01:28:13.367Z,2.67
2022-12-24T01:30:44.305Z,3.17
2022-12-24T01:33:14.300Z,4.90
2022-12-24T01:35:47.401Z,5.75
2022-12-24T01:38:17.964Z,5.32
2022-12-24T01:41:00.440Z,5.35
2022-12-24T01:43:33.208Z,3.60
2022-12-24T01:46:05.510Z,5.68
2022-12-24T01:48:39.063Z,2.67
2022-12-24T01:51:20.687Z,3.75
2022-12-24T01:53:53.563Z,4.40
2022-12-24T01:56:24.252Z,3.03
2022-12-24T01:58:57.497Z,2.10
2022-12-24T02:01:28.087Z,5.10
2022-12-24T02:03:58.131Z,7.15
2022-12-24T02:06:30.795Z,2.95
2022-12-24T02:09:00.741Z,3.58
2022-12-24T02:11:30.768Z,1.65
2022-12-24T02:14:02.369Z,4.47
2022-12-24T02:16:42.054Z,4.43
2022-12-24T02:19:24.428Z,1.98
2022-12-24T02:22:05.494Z,3.78
2022-12-24T02:24:59.057Z,5.05
2022-12-24T02:27:37.850Z,6.43
2022-12-24T02:30:14.304Z,4.32
2022-12-24T02:33:11.661Z,4.25
2022-12-24T02:35:47.976Z,4.38
2022-12-24T02:38:22.689Z,2.72
2022-12-24T02:40:55.370Z,4.07
2022-12-24T02:43:26.976Z,4.40
2022-12-24T02:46:02.148Z,2.17
2022-12-24T02:48:33.404Z,3.72
2022-12-24T02:51:07.067Z,3.05
2022-12-24T02:53:37.754Z,3.42
2022-12-24T02:56:18.422Z,4.38
2022-12-24T02:59:18.726Z,6.38
2022-12-24T03:02:00.744Z,4.50
2022-12-24T03:04:45.039Z,5.43
2022-12-24T03:07:20.925Z,4.85
2022-12-24T03:10:01.302Z,5.70
2022-12-24T03:12:36.005Z,8.18
2022-12-24T03:15:08.571Z,4.68
2022-12-24T03:17:42.504Z,6.43
2022-12-24T03:20:14.937Z,3.05
2022-12-24T03:22:44.926Z,4.20
2022-12-24T03:25:14.876Z,3.10
2022-12-24T03:27:45.069Z,3.15
2022-12-24T03:30:18.686Z,4.85
2022-12-24T03:32:51.407Z,5.10
2022-12-24T03:35:21.764Z,4.88
2022-12-24T03:37:51.778Z,4.40
2022-12-24T03:40:22.209Z,3.67
2022-12-24T03:42:52.213Z,4.57
2022-12-24T03:45:22.475Z,5.38
2022-12-24T03:47:55.084Z,4.90
2022-12-24T03:50:25.177Z,9.27
2022-12-24T03:52:55.204Z,8.20
2022-12-24T03:55:25.286Z,4.82
2022-12-24T03:57:55.287Z,3.65
2022-12-24T04:00:25.401Z,5.93
2022-12-24T04:02:58.301Z,4.28
2022-12-24T04:05:28.481Z,5.65
2022-12-24T04:07:58.496Z,2.45
2022-12-24T04:10:28.547Z,6.35
2022-12-24T04:12:58.531Z,6.30
2022-12-24T04:15:28.539Z,4.00
2022-12-24T04:18:01.164Z,4.80
2022-12-24T04:20:31.189Z,3.80
2022-12-24T04:23:01.150Z,3.92
2022-12-24T04:25:31.164Z,5.47
2022-12-24T04:28:01.156Z,4.07
2022-12-24T04:30:31.162Z,7.57
2022-12-24T04:33:03.790Z,4.60
2022-12-24T04:35:33.848Z,6.00
2022-12-24T04:38:03.773Z,5.32
2022-12-24T04:40:33.738Z,4.13
2022-12-24T04:43:04.055Z,4.80
2022-12-24T04:45:34.948Z,3.90
2022-12-24T04:48:07.948Z,6.60
2022-12-24T04:50:37.920Z,7.35
2022-12-24T04:53:07.849Z,5.72
2022-12-24T04:55:37.834Z,8.77
2022-12-24T04:58:07.822Z,6.35
2022-12-24T05:00:37.883Z,8.02
2022-12-24T05:03:10.492Z,6.07
2022-12-24T05:05:40.588Z,5.07
2022-12-24T05:08:10.566Z,4.10
2022-12-24T05:10:40.623Z,8.25
2022-12-24T05:13:10.608Z,11.15
2022-12-24T05:15:40.592Z,6.05
2022-12-24T05:18:13.138Z,6.50
2022-12-24T05:20:44.479Z,30.58
2022-12-24T05:23:31.018Z,18.10
2022-12-24T05:26:13.439Z,16.10
2022-12-24T05:28:43.649Z,49.70
2022-12-24T05:31:13.786Z,9.02
2022-12-24T05:33:46.445Z,14.70
2022-12-24T05:36:17.006Z,8.02
2022-12-24T05:38:46.958Z,5.10
2022-12-24T05:41:17.067Z,4.20
2022-12-24T05:43:47.088Z,5.93
2022-12-24T05:46:19.156Z,7.95
2022-12-24T05:48:52.486Z,6.80
2022-12-24T05:51:25.041Z,5.35
2022-12-24T05:53:55.182Z,6.50
2022-12-24T05:56:27.150Z,6.47
2022-12-24T05:58:58.146Z,2.60
2022-12-24T06:01:28.865Z,3.95
2022-12-24T06:04:02.306Z,5.07
2022-12-24T06:06:32.881Z,5.57
2022-12-24T06:09:02.892Z,5.03
2022-12-24T06:11:33.274Z,3.15
2022-12-24T06:14:03.326Z,3.60
2022-12-24T06:16:33.488Z,4.38
2022-12-24T06:19:06.118Z,2.95
2022-12-24T06:21:36.400Z,2.92
2022-12-24T06:24:06.824Z,3.35
2022-12-24T06:26:36.870Z,2.83
2022-12-24T06:29:07.025Z,1.58
2022-12-24T06:31:37.199Z,1.98
2022-12-24T06:34:09.938Z,4.60
2022-12-24T06:36:39.948Z,2.58
2022-12-24T06:39:09.872Z,2.28
2022-12-24T06:41:39.807Z,4.85
2022-12-24T06:44:09.801Z,4.30
2022-12-24T06:46:39.981Z,1.67
2022-12-24T06:49:12.722Z,4.72
2022-12-24T06:51:42.753Z,4.65
2022-12-24T06:54:12.751Z,3.03
2022-12-24T06:56:42.701Z,2.47
2022-12-24T06:59:12.747Z,5.38
2022-12-24T07:01:42.793Z,5.28
2022-12-24T07:04:20.117Z,5.28
2022-12-24T07:06:50.831Z,9.23
2022-12-24T07:09:20.842Z,5.47
2022-12-24T07:11:50.794Z,6.35
2022-12-24T07:14:20.808Z,6.70
2022-12-24T07:16:56.898Z,7.35
2022-12-24T07:19:31.464Z,9.00
2022-12-24T07:22:01.480Z,10.23
2022-12-24T07:24:31.480Z,5.97
2022-12-24T07:27:01.444Z,6.38
2022-12-24T07:29:31.519Z,5.93
2022-12-24T07:32:01.608Z,5.88
2022-12-24T07:34:34.179Z,9.63
2022-12-24T07:37:04.268Z,11.20
2022-12-24T07:39:34.298Z,12.15
2022-12-24T07:42:05.773Z,11.82
2022-12-24T07:44:35.838Z,16.48
2022-12-24T07:47:05.990Z,7.43
2022-12-24T07:49:39.171Z,12.15
2022-12-24T07:52:09.285Z,11.63
2022-12-24T07:54:39.437Z,11.48
2022-12-24T07:57:09.478Z,6.65
2022-12-24T07:59:39.473Z,11.27
2022-12-24T08:02:15.832Z,12.20
2022-12-24T08:04:50.955Z,7.95
2022-12-24T08:07:21.006Z,10.02
2022-12-24T08:09:51.008Z,19.42
2022-12-24T08:12:20.995Z,15.38
2022-12-24T08:14:51.005Z,10.57
2022-12-24T08:17:21.045Z,10.27
2022-12-24T08:19:53.859Z,7.47
2022-12-24T08:22:23.872Z,8.05
2022-12-24T08:24:53.843Z,7.55
2022-12-24T08:27:23.931Z,9.18
2022-12-24T08:29:53.920Z,7.15
2022-12-24T08:32:23.870Z,8.90
2022-12-24T08:34:56.507Z,8.65
2022-12-24T08:37:26.607Z,6.30
2022-12-24T08:39:56.579Z,8.45
2022-12-24T08:42:26.740Z,8.98
2022-12-24T08:44:56.805Z,5.75
2022-12-24T08:47:26.802Z,9.23
2022-12-24T08:49:59.407Z,7.53
2022-12-24T08:52:29.486Z,6.75
2022-12-24T08:54:59.518Z,9.07
2022-12-24T08:57:29.559Z,5.63
2022-12-24T08:59:59.670Z,3.83
2022-12-24T09:02:29.753Z,7.57
2022-12-24T09:05:02.525Z,6.55
2022-12-24T09:07:32.647Z,7.07
2022-12-24T09:10:02.606Z,10.63
2022-12-24T09:12:32.670Z,8.43
2022-12-24T09:15:04.215Z,7.72
2022-12-24T09:17:34.577Z,9.10
2022-12-24T09:20:08.505Z,4.63
2022-12-24T09:22:39.947Z,3.25
2022-12-24T09:25:11.686Z,3.42
2022-12-24T09:27:41.760Z,10.63
2022-12-24T09:30:13.384Z,3.95
2022-12-24T09:32:43.399Z,10.45
2022-12-24T09:35:15.987Z,11.43
2022-12-24T09:37:46.011Z,11.07
2022-12-24T09:40:25.777Z,10.50
2022-12-24T09:42:56.756Z,7.47
2022-12-24T09:45:32.337Z,13.75
2022-12-24T09:48:05.187Z,9.52
2022-12-24T09:50:43.011Z,13.57
2022-12-24T09:53:20.282Z,7.07
2022-12-24T09:55:52.355Z,9.10
2022-12-24T09:58:29.167Z,8.73
2022-12-24T10:00:59.557Z,8.05
2022-12-24T10:03:29.875Z,7.35
2022-12-24T10:06:09.300Z,12.10
2022-12-24T10:11:19.195Z,10.02
2022-12-24T10:14:07.036Z,7.57
2022-12-24T10:16:44.527Z,9.55
2022-12-24T10:19:19.429Z,9.10
2022-12-24T10:22:01.379Z,6.97
2022-12-24T10:24:36.444Z,9.20
2022-12-24T10:27:10.095Z,8.20
2022-12-24T10:29:43.800Z,6.75
2022-12-24T10:32:19.653Z,11.25
2022-12-24T10:34:54.743Z,5.50
2022-12-24T10:37:29.015Z,10.35
2022-12-24T10:40:00.184Z,7.22
2022-12-24T10:42:37.195Z,5.20
2022-12-24T10:45:09.957Z,6.80
2022-12-24T10:47:41.563Z,11.10
2022-12-24T10:50:20.200Z,8.90
2022-12-24T10:52:54.620Z,6.55
2022-12-24T10:55:28.415Z,7.93
2022-12-24T10:58:04.361Z,9.52
2022-12-24T11:00:36.642Z,7.93
2022-12-24T11:03:31.797Z,11.18
2022-12-24T11:06:13.509Z,6.55
2022-12-24T11:08:47.832Z,10.75
2022-12-24T11:11:20.433Z,6.78
2022-12-24T11:13:57.367Z,6.47
2022-12-24T11:16:30.943Z,8.75
2022-12-24T11:19:02.940Z,14.52
2022-12-24T11:21:34.879Z,9.45
2022-12-24T11:24:11.562Z,7.15
2022-12-24T11:26:42.927Z,9.73
2022-12-24T11:29:19.003Z,6.50
2022-12-24T11:31:50.027Z,10.88
2022-12-24T11:34:28.304Z,10.65
2022-12-24T11:37:14.641Z,12.55
2022-12-24T11:39:51.023Z,9.75
2022-12-24T11:42:30.037Z,6.47
2022-12-24T11:45:00.729Z,14.40
2022-12-24T11:47:37.996Z,6.22
2022-12-24T11:50:23.931Z,16.55
2022-12-24T11:52:58.216Z,11.85
2022-12-24T11:55:38.868Z,10.48
2022-12-24T11:58:17.847Z,9.15
2022-12-24T12:00:48.665Z,15.35
2022-12-24T12:03:29.179Z,8.95
2022-12-24T12:05:59.384Z,11.25
2022-12-24T12:08:31.385Z,15.70
2022-12-24T12:11:06.799Z,12.30
2022-12-24T12:13:38.376Z,10.80
2022-12-24T12:16:14.211Z,11.32
2022-12-24T12:18:46.627Z,11.70
2022-12-24T12:21:19.824Z,15.43
2022-12-24T12:23:53.076Z,21.13
2022-12-24T12:26:27.708Z,15.15
2022-12-24T12:29:00.026Z,18.50
2022-12-24T12:31:34.311Z,12.68
2022-12-24T12:34:08.073Z,15.40
2022-12-24T12:36:42.578Z,14.68
2022-12-24T12:39:13.485Z,11.85
2022-12-24T12:41:53.709Z,10.00
2022-12-24T12:44:35.669Z,13.70
2022-12-24T12:47:17.710Z,10.93
2022-12-24T12:49:53.705Z,10.93
2022-12-24T12:52:35.858Z,10.70
2022-12-24T12:55:23.874Z,6.32
2022-12-24T12:58:00.615Z,12.80
2022-12-24T13:00:31.437Z,10.98
2022-12-24T13:03:41.089Z,14.43
2022-12-24T13:06:29.864Z,7.05
2022-12-24T13:09:19.821Z,9.55
2022-12-24T13:12:11.480Z,9.63
2022-12-24T13:15:11.745Z,10.23
2022-12-24T13:18:04.432Z,18.02
2022-12-24T13:20:37.002Z,15.75
2022-12-24T13:23:15.329Z,11.30
2022-12-24T13:25:47.099Z,12.63
2022-12-24T13:28:35.981Z,6.70
2022-12-24T13:31:32.586Z,11.95
2022-12-24T13:34:06.150Z,6.63
2022-12-24T13:37:03.980Z,10.95
2022-12-24T13:40:03.862Z,6.72
2022-12-24T13:42:50.876Z,10.68
2022-12-24T13:45:45.902Z,14.82
2022-12-24T13:48:35.100Z,14.73
2022-12-24T13:51:21.365Z,10.45
2022-12-24T13:53:51.960Z,8.50
2022-12-24T13:56:29.308Z,11.27
2022-12-24T13:59:14.131Z,10.23
2022-12-24T14:01:45.545Z,13.23
2022-12-24T14:04:26.308Z,16.83
2022-12-24T14:06:58.022Z,12.02
2022-12-24T14:09:28.880Z,30.42
2022-12-24T14:12:20.550Z,11.73
2022-12-24T14:14:52.973Z,10.05
2022-12-24T14:17:25.930Z,15.52
2022-12-24T14:20:00.519Z,10.48
2022-12-24T14:22:34.329Z,15.50
2022-12-24T14:25:06.447Z,24.02
2022-12-24T14:27:41.824Z,16.42
2022-12-24T14:30:20.017Z,10.60
2022-12-24T14:32:51.096Z,14.00
2022-12-24T14:35:25.075Z,15.45
2022-12-24T14:38:00.559Z,21.20
2022-12-24T14:40:32.966Z,17.33
2022-12-24T14:43:09.559Z,12.23
2022-12-24T14:45:45.225Z,11.18
2022-12-24T14:48:19.094Z,6.63
2022-12-24T14:51:03.031Z,5.57
2022-12-24T14:53:49.404Z,7.82
2022-12-24T14:56:21.132Z,10.60
2022-12-24T14:58:51.789Z,11.60
2022-12-24T15:01:25.429Z,8.40
2022-12-24T15:04:06.824Z,10.65
2022-12-24T15:06:42.259Z,10.25
2022-12-24T15:09:17.105Z,10.40
2022-12-24T15:11:47.406Z,10.80
2022-12-24T15:14:17.829Z,11.02
2022-12-24T15:16:56.032Z,16.83
2022-12-24T15:19:29.307Z,10.45
2022-12-24T15:22:02.380Z,11.82
2022-12-24T15:24:34.555Z,10.75
2022-12-24T15:27:06.685Z,11.20
2022-12-24T15:29:43.044Z,9.85
2022-12-24T15:32:15.954Z,8.27
2022-12-24T15:34:48.027Z,15.70
2022-12-24T15:37:22.736Z,11.52
2022-12-24T15:39:56.652Z,11.70
2022-12-24T15:42:27.423Z,10.57
2022-12-24T15:45:03.567Z,9.43
2022-12-24T15:47:38.371Z,11.13
2022-12-24T15:50:18.040Z,12.20
2022-12-24T15:53:19.813Z,14.00
2022-12-24T15:55:42.746Z,15.07
2022-12-24T15:58:20.602Z,15.30
2022-12-24T16:01:04.653Z,14.13
2022-12-24T16:03:35.154Z,15.95
2022-12-24T16:06:06.422Z,19.88
2022-12-24T16:08:40.389Z,17.75
2022-12-24T16:11:17.737Z,20.95
2022-12-24T16:14:00.101Z,21.80
2022-12-24T16:16:36.316Z,13.32
2022-12-24T16:19:08.463Z,21.00
2022-12-24T16:21:40.174Z,15.10
2022-12-24T16:24:18.086Z,10.18
2022-12-24T16:26:49.155Z,9.55
2022-12-24T16:29:20.461Z,16.30
2022-12-24T16:31:55.552Z,8.98
2022-12-24T16:34:27.378Z,10.63
2022-12-24T16:36:58.147Z,10.82
2022-12-24T16:39:33.762Z,8.48
2022-12-24T16:42:18.020Z,8.73
2022-12-24T16:44:48.834Z,10.40
2022-12-24T16:47:21.853Z,14.70
2022-12-24T16:49:51.811Z,8.98
2022-12-24T16:52:26.056Z,7.60
2022-12-24T16:54:59.348Z,7.68
2022-12-24T16:57:30.073Z,10.85
2022-12-24T17:00:00.080Z,5.93
2022-12-24T17:02:30.408Z,10.20
2022-12-24T17:05:00.659Z,12.38
2022-12-24T17:07:30.780Z,6.57
2022-12-24T17:10:03.439Z,11.95
2022-12-24T17:12:33.465Z,8.02
2022-12-24T17:15:03.507Z,11.90
2022-12-24T17:17:33.756Z,11.02
2022-12-24T17:20:04.788Z,7.85
2022-12-24T17:22:34.951Z,16.88
2022-12-24T17:25:09.291Z,16.90
2022-12-24T17:27:39.340Z,13.35
2022-12-24T17:30:10.794Z,7.40
2022-12-24T17:32:41.035Z,7.57
2022-12-24T17:35:12.201Z,10.55
2022-12-24T17:37:42.351Z,9.77
2022-12-24T17:40:15.831Z,8.38
2022-12-24T17:42:45.869Z,6.60
2022-12-24T17:45:15.822Z,7.90
2022-12-24T17:47:45.999Z,4.82
2022-12-24T17:50:16.066Z,9.18
2022-12-24T17:52:46.036Z,6.85
2022-12-24T17:55:18.823Z,6.53
2022-12-24T17:57:48.857Z,26.25
2022-12-24T18:00:20.460Z,13.20
2022-12-24T18:02:50.689Z,10.27
2022-12-24T18:05:20.998Z,13.50
2022-12-24T18:07:51.102Z,8.10
2022-12-24T18:10:23.899Z,5.57
2022-12-24T18:12:53.957Z,7.47
2022-12-24T18:15:24.617Z,6.68
2022-12-24T18:17:55.446Z,3.55
2022-12-24T18:20:25.836Z,4.53
2022-12-24T18:22:56.774Z,7.10
2022-12-24T18:25:29.511Z,3.92
2022-12-24T18:28:00.482Z,8.38
2022-12-24T18:30:30.860Z,7.78
2022-12-24T18:33:00.856Z,8.15
2022-12-24T18:35:30.876Z,7.65
2022-12-24T18:38:01.216Z,4.43
2022-12-24T18:40:33.940Z,10.10
2022-12-24T18:43:03.943Z,5.78
2022-12-24T18:45:34.262Z,7.93
2022-12-24T18:48:04.369Z,6.00
2022-12-24T18:50:34.363Z,4.78
2022-12-24T18:53:04.658Z,4.80
2022-12-24T18:55:40.161Z,4.32
2022-12-24T18:58:10.201Z,11.57
2022-12-24T19:00:40.273Z,5.53
2022-12-24T19:03:10.364Z,4.50
2022-12-24T19:05:40.533Z,4.53
2022-12-24T19:08:37.786Z,4.95
2022-12-24T19:11:03.215Z,6.93
2022-12-24T19:13:33.226Z,6.22
2022-12-24T19:16:03.398Z,7.15
2022-12-24T19:18:33.698Z,13.55
2022-12-24T19:21:08.177Z,9.80
2022-12-24T19:23:38.389Z,12.45
2022-12-24T19:26:12.667Z,14.30
2022-12-24T19:28:43.157Z,13.77
2022-12-24T19:31:15.416Z,8.73
2022-12-24T19:33:47.686Z,8.18
2022-12-24T19:36:18.890Z,7.75
2022-12-24T19:38:49.010Z,14.23
2022-12-24T19:41:23.571Z,10.43
2022-12-24T19:43:55.829Z,9.10
2022-12-24T19:46:29.702Z,12.93
2022-12-24T19:49:01.287Z,11.52
2022-12-24T19:51:32.205Z,10.57
2022-12-24T19:54:02.808Z,11.85
2022-12-24T19:56:35.858Z,7.82
2022-12-24T19:59:06.462Z,8.70
2022-12-24T20:01:38.115Z,12.55
2022-12-24T20:04:08.402Z,8.77
2022-12-24T20:06:39.503Z,8.25
2022-12-24T20:09:11.161Z,8.30
2022-12-24T20:11:43.751Z,11.98
2022-12-24T20:14:14.831Z,12.73
2022-12-24T20:16:45.561Z,9.65
2022-12-24T20:19:17.005Z,10.13
2022-12-24T20:21:46.990Z,12.73
2022-12-24T20:24:16.993Z,11.00
2022-12-24T20:26:49.557Z,11.90
2022-12-24T20:29:19.628Z,8.38
2022-12-24T20:31:49.705Z,10.52
2022-12-24T20:34:19.806Z,12.70
2022-12-24T20:36:49.839Z,15.60
2022-12-24T20:39:19.947Z,12.13
2022-12-24T20:41:52.509Z,15.70
2022-12-24T20:44:23.592Z,14.40
2022-12-24T20:46:54.219Z,7.65
2022-12-24T20:49:24.257Z,10.10
2022-12-24T20:51:54.234Z,5.25
2022-12-24T20:54:24.239Z,5.22
2022-12-24T20:56:58.913Z,7.72
2022-12-24T20:59:29.218Z,4.50
2022-12-24T21:01:59.403Z,4.72
2022-12-24T21:04:29.567Z,5.20
2022-12-24T21:06:59.572Z,9.93
2022-12-24T21:09:29.643Z,7.32
2022-12-24T21:12:14.614Z,5.05
2022-12-24T21:14:44.663Z,12.48
2022-12-24T21:17:16.160Z,10.10
2022-12-24T21:19:46.368Z,14.23
2022-12-24T21:22:16.363Z,16.08
2022-12-24T21:24:46.345Z,9.68
2022-12-24T21:27:19.140Z,6.38
2022-12-24T21:29:49.602Z,6.32
2022-12-24T21:32:19.831Z,6.65
2022-12-24T21:34:50.147Z,6.25
2022-12-24T21:37:20.338Z,7.95
2022-12-24T21:39:54.909Z,7.10
2022-12-24T21:42:27.869Z,5.63
2022-12-24T21:44:57.962Z,7.07
2022-12-24T21:47:28.088Z,4.68
2022-12-24T21:50:10.444Z,6.30
2022-12-24T21:52:40.491Z,20.42
2022-12-24T21:55:10.633Z,61.78
2022-12-24T21:57:58.115Z,25.70
2022-12-24T22:00:30.839Z,22.08
2022-12-24T22:03:01.737Z,16.60
2022-12-24T22:05:31.917Z,20.27
2022-12-24T22:08:14.511Z,23.80
2022-12-24T22:10:56.996Z,17.42
2022-12-24T22:13:31.478Z,15.88
2022-12-24T22:16:01.549Z,19.38
2022-12-24T22:18:38.911Z,14.73
2022-12-24T22:21:09.230Z,12.63
2022-12-24T22:23:42.703Z,16.60
2022-12-24T22:26:14.518Z,33.22
2022-12-24T22:28:47.379Z,34.30
2022-12-24T22:31:20.992Z,48.55
2022-12-24T22:33:51.051Z,31.38
2022-12-24T22:36:22.088Z,40.17
2022-12-24T22:38:52.744Z,31.67
2022-12-24T22:41:22.801Z,17.05
2022-12-24T22:43:57.688Z,14.88
2022-12-24T22:46:27.947Z,11.43
2022-12-24T22:48:58.063Z,13.88
2022-12-24T22:51:28.001Z,25.70
2022-12-24T22:53:57.999Z,12.73
2022-12-24T22:56:28.024Z,15.32
2022-12-24T22:59:00.963Z,19.38
2022-12-24T23:01:37.423Z,15.38
2022-12-24T23:04:08.829Z,17.77
2022-12-24T23:06:39.188Z,11.90
2022-12-24T23:09:10.730Z,8.85
2022-12-24T23:11:40.813Z,11.50
2022-12-24T23:14:30.491Z,12.02
2022-12-24T23:17:00.699Z,9.88
2022-12-24T23:19:31.987Z,16.05
2022-12-24T23:22:02.282Z,11.80
2022-12-24T23:24:32.532Z,12.15
2022-12-24T23:27:03.473Z,13.07
2022-12-24T23:29:36.327Z,8.68
2022-12-24T23:32:06.612Z,9.80
2022-12-24T23:34:36.627Z,12.40
2022-12-24T23:37:06.678Z,11.55
2022-12-24T23:39:36.722Z,12.57
2022-12-24T23:42:06.923Z,12.70
2022-12-24T23:44:39.611Z,10.52
2022-12-24T23:47:09.845Z,11.65
2022-12-24T23:49:39.848Z,16.83
2022-12-24T23:52:09.973Z,8.63
2022-12-24T23:54:40.091Z,10.60
2022-12-24T23:57:10.380Z,12.27
2022-12-24T23:59:43.003Z,12.90
